createdAt,value
2023-07-14T00:00:01.814Z,76.8
2023-07-14T00:01:01.303Z,76.8
2023-07-14T00:02:03.392Z,76.9
2023-07-14T00:03:02.258Z,77
2023-07-14T00:04:01.633Z,76.9
2023-07-14T00:05:03.813Z,76.9
2023-07-14T00:06:01.532Z,77.1
2023-07-14T00:07:02.059Z,77.1
2023-07-14T00:08:01.446Z,77.1
2023-07-14T00:09:01.921Z,77.3
2023-07-14T00:10:01.317Z,77.4
2023-07-14T00:11:03.468Z,77.3
2023-07-14T00:12:02.267Z,77.3
2023-07-14T00:13:03.363Z,77.5
2023-07-14T00:14:02.127Z,77.6
2023-07-14T00:15:03.244Z,77.8
2023-07-14T00:16:03.682Z,77.9
2023-07-14T00:17:03.200Z,78
2023-07-14T00:18:02.030Z,77.9
2023-07-14T00:19:03.096Z,77.8
2023-07-14T00:20:01.850Z,77.3
2023-07-14T00:21:02.934Z,77.3
2023-07-14T00:22:03.373Z,77.3
2023-07-14T00:23:03.930Z,77.5
2023-07-14T00:24:03.265Z,77.4
2023-07-14T00:25:03.723Z,77.5
2023-07-14T00:26:03.153Z,77.6
2023-07-14T00:27:01.979Z,77.5
2023-07-14T00:28:03.048Z,77.6
2023-07-14T00:29:03.539Z,77.7
2023-07-14T00:30:03.033Z,77.7
2023-07-14T00:31:01.840Z,78
2023-07-14T00:33:03.472Z,77.8
2023-07-14T00:34:03.849Z,77.9
2023-07-14T00:35:03.302Z,78.1
2023-07-14T00:36:02.110Z,78
2023-07-14T00:37:01.545Z,78.3
2023-07-14T00:38:02.013Z,78.4
2023-07-14T00:39:03.085Z,78.2
2023-07-14T00:40:03.514Z,78.4
2023-07-14T00:41:01.443Z,78.5
2023-07-14T00:42:01.800Z,78.3
2023-07-14T00:43:01.284Z,78.1
2023-07-14T00:44:03.333Z,78.1
2023-07-14T00:45:03.814Z,78.2
2023-07-14T00:46:01.669Z,78.1
2023-07-14T00:47:02.080Z,78.2
2023-07-14T00:48:01.614Z,78.1
2023-07-14T00:49:03.626Z,78.1
2023-07-14T00:50:01.434Z,78.2
2023-07-14T00:51:01.884Z,78.3
2023-07-14T00:52:02.961Z,78.2
2023-07-14T00:53:03.411Z,78.4
2023-07-14T00:54:03.845Z,78.5
2023-07-14T00:55:01.705Z,78.8
2023-07-14T00:56:02.131Z,78.4
2023-07-14T00:57:03.211Z,78.4
2023-07-14T00:58:03.666Z,78.3
2023-07-14T00:59:01.492Z,78.8
2023-07-14T01:00:03.604Z,78.6
2023-07-14T01:01:03.031Z,78.4
2023-07-14T01:02:03.625Z,78.2
2023-07-14T01:03:03.962Z,78.2
2023-07-14T01:04:03.448Z,78.1
2023-07-14T01:05:02.194Z,77.7
2023-07-14T01:06:01.675Z,77.9
2023-07-14T01:07:02.077Z,77.9
2023-07-14T01:08:03.203Z,77.6
2023-07-14T01:09:03.661Z,77.8
2023-07-14T01:10:01.489Z,78
2023-07-14T01:11:01.961Z,77.8
2023-07-14T01:12:03.022Z,77.8
2023-07-14T01:13:03.440Z,77.8
2023-07-14T01:14:02.895Z,77.5
2023-07-14T01:15:01.731Z,78
2023-07-14T01:16:03.914Z,77.5
2023-07-14T01:17:03.273Z,77.8
2023-07-14T01:18:02.138Z,78.1
2023-07-14T01:19:03.116Z,78.4
2023-07-14T01:20:03.597Z,78.4
2023-07-14T01:21:03.048Z,78.1
2023-07-14T01:22:01.853Z,78.1
2023-07-14T01:23:02.999Z,78.1
2023-07-14T01:24:01.772Z,78.2
2023-07-14T01:25:02.203Z,78.1
2023-07-14T01:26:01.701Z,78.1
2023-07-14T01:27:02.792Z,78.2
2023-07-14T01:28:01.592Z,78.4
2023-07-14T01:29:03.665Z,78.4
2023-07-14T01:30:03.134Z,78.3
2023-07-14T01:31:03.559Z,78.3
2023-07-14T01:32:03.003Z,78.2
2023-07-14T01:33:01.847Z,78.4
2023-07-14T01:34:01.282Z,77.6
2023-07-14T01:35:03.420Z,77.5
2023-07-14T01:36:02.169Z,77.6
2023-07-14T01:37:03.257Z,77.6
2023-07-14T01:38:02.039Z,77.8
2023-07-14T01:39:01.509Z,78
2023-07-14T01:40:01.989Z,78
2023-07-14T01:41:03.018Z,78.1
2023-07-14T01:42:01.874Z,78.5
2023-07-14T01:43:01.293Z,78.5
2023-07-14T01:44:03.430Z,78.5
2023-07-14T01:45:03.819Z,78.7
2023-07-14T01:46:01.654Z,78.7
2023-07-14T01:47:02.207Z,78.6
2023-07-14T01:48:03.246Z,78.3
2023-07-14T01:49:03.604Z,78.7
2023-07-14T01:50:03.081Z,79.2
2023-07-14T01:51:03.515Z,79
2023-07-14T01:52:01.318Z,78.7
2023-07-14T01:53:03.387Z,78.8
2023-07-14T01:54:03.865Z,78.6
2023-07-14T01:55:03.244Z,78.7
2023-07-14T01:56:02.082Z,78.5
2023-07-14T01:57:03.165Z,79.2
2023-07-14T01:58:03.639Z,79.7
2023-07-14T01:59:03.047Z,79.8
2023-07-14T02:00:03.580Z,80.1
2023-07-14T02:01:02.966Z,79.9
2023-07-14T02:02:01.804Z,79.7
2023-07-14T02:03:04.145Z,79.9
2023-07-14T02:04:01.676Z,79.8
2023-07-14T02:05:03.763Z,79.7
2023-07-14T02:06:03.177Z,79.7
2023-07-14T02:07:03.601Z,79.5
2023-07-14T02:08:01.425Z,79.4
2023-07-14T02:09:03.479Z,79.6
2023-07-14T02:10:01.377Z,79.8
2023-07-14T02:11:01.760Z,79.6
2023-07-14T02:12:02.249Z,79.7
2023-07-14T02:13:03.326Z,79.8
2023-07-14T02:14:03.757Z,79.7
2023-07-14T02:15:01.576Z,79.9
2023-07-14T02:16:02.057Z,79.9
2023-07-14T02:17:03.106Z,79.9
2023-07-14T02:18:01.956Z,79.9
2023-07-14T02:19:01.376Z,80.2
2023-07-14T02:20:03.464Z,80.1
2023-07-14T02:21:02.292Z,80
2023-07-14T02:22:03.370Z,79.9
2023-07-14T02:23:03.939Z,80.1
2023-07-14T02:24:03.289Z,80.2
2023-07-14T02:25:03.692Z,80.2
2023-07-14T02:26:03.143Z,80.2
2023-07-14T02:27:01.914Z,80.2
2023-07-14T02:28:03.043Z,80.2
2023-07-14T02:29:03.468Z,80.1
2023-07-14T02:31:03.372Z,80.2
2023-07-14T02:32:03.816Z,80.3
2023-07-14T02:33:01.632Z,80.3
2023-07-14T02:34:03.745Z,80.2
2023-07-14T02:35:03.119Z,80.3
2023-07-14T02:36:03.620Z,80.4
2023-07-14T02:37:02.982Z,80.4
2023-07-14T02:38:01.866Z,80.3
2023-07-14T02:39:03.875Z,80.3
2023-07-14T02:40:01.725Z,80.3
2023-07-14T02:41:02.158Z,80.3
2023-07-14T02:42:03.314Z,80.2
2023-07-14T02:43:05.856Z,80.4
2023-07-14T02:44:03.123Z,80.4
2023-07-14T02:45:01.906Z,80.5
2023-07-14T02:46:01.371Z,80.3
2023-07-14T02:47:02.601Z,80.2
2023-07-14T02:48:01.331Z,80.3
2023-07-14T02:49:01.736Z,80.6
2023-07-14T02:50:03.856Z,80.7
2023-07-14T02:51:03.277Z,80.6
2023-07-14T02:52:03.773Z,80.6
2023-07-14T02:53:01.513Z,80.7
2023-07-14T02:54:03.629Z,80.8
2023-07-14T02:55:03.071Z,80.8
2023-07-14T02:56:01.879Z,80.9
2023-07-14T02:57:01.321Z,80.9
2023-07-14T02:58:03.479Z,81.1
2023-07-14T02:59:02.243Z,80.9
2023-07-14T03:00:03.357Z,80.9
2023-07-14T03:01:03.716Z,80.8
2023-07-14T03:02:01.560Z,81
2023-07-14T03:03:03.750Z,81
2023-07-14T03:04:01.596Z,81.1
2023-07-14T03:05:01.902Z,81.2
2023-07-14T03:06:01.348Z,81.4
2023-07-14T03:07:01.755Z,81.4
2023-07-14T03:08:02.306Z,81.3
2023-07-14T03:09:01.702Z,81.1
2023-07-14T03:10:02.178Z,81.2
2023-07-14T03:11:03.208Z,81.3
2023-07-14T03:12:02.092Z,81.3
2023-07-14T03:13:01.543Z,81.3
2023-07-14T03:14:03.688Z,81.1
2023-07-14T03:15:03.026Z,81
2023-07-14T03:16:01.987Z,81.2
2023-07-14T03:17:01.373Z,81
2023-07-14T03:18:01.878Z,81
2023-07-14T03:19:01.277Z,81.4
2023-07-14T03:20:03.388Z,81.3
2023-07-14T03:21:02.160Z,81.2
2023-07-14T03:22:01.641Z,81.6
2023-07-14T03:23:02.092Z,81.7
2023-07-14T03:24:03.198Z,81.4
2023-07-14T03:25:02.030Z,81
2023-07-14T03:26:01.429Z,81
2023-07-14T03:27:03.532Z,81.5
2023-07-14T03:28:02.988Z,81.3
2023-07-14T03:29:01.788Z,81.2
2023-07-14T03:30:02.297Z,81.1
2023-07-14T03:31:01.697Z,81.3
2023-07-14T03:32:02.187Z,81.2
2023-07-14T03:33:03.263Z,81.5
2023-07-14T03:34:03.726Z,81.7
2023-07-14T03:35:01.577Z,81.7
2023-07-14T03:36:03.597Z,81.4
2023-07-14T03:37:01.437Z,81.2
2023-07-14T03:38:03.535Z,81.2
2023-07-14T03:39:02.976Z,81.1
2023-07-14T03:40:01.815Z,81.2
2023-07-14T03:41:03.872Z,81.1
2023-07-14T03:42:03.349Z,81.2
2023-07-14T03:43:02.116Z,81.4
2023-07-14T03:44:03.243Z,81.4
2023-07-14T03:45:02.042Z,81.3
2023-07-14T03:46:01.517Z,81.1
2023-07-14T03:47:01.898Z,81.3
2023-07-14T03:48:03.024Z,81.4
2023-07-14T03:49:03.432Z,81.4
2023-07-14T03:50:01.341Z,81.6
2023-07-14T03:51:01.773Z,81.4
2023-07-14T03:52:02.220Z,81.5
2023-07-14T03:53:03.346Z,81.4
2023-07-14T03:54:02.140Z,81.4
2023-07-14T03:55:03.228Z,81.6
2023-07-14T03:56:02.073Z,81.6
2023-07-14T03:57:03.140Z,81.7
2023-07-14T03:58:04.689Z,81.5
2023-07-14T03:59:01.439Z,82
2023-07-14T04:00:01.934Z,81.9
2023-07-14T04:01:03.070Z,81.7
2023-07-14T04:02:01.864Z,81.8
2023-07-14T04:03:03.981Z,81.7
2023-07-14T04:04:03.369Z,81.9
2023-07-14T04:05:02.194Z,81.6
2023-07-14T04:06:01.629Z,81.7
2023-07-14T04:07:02.072Z,81.9
2023-07-14T04:08:03.786Z,82
2023-07-14T04:09:01.535Z,81.9
2023-07-14T04:10:01.910Z,81.8
2023-07-14T04:11:01.364Z,81.6
2023-07-14T04:12:01.787Z,81.6
2023-07-14T04:13:02.278Z,81.5
2023-07-14T04:14:03.352Z,81.6
2023-07-14T04:15:02.206Z,81.8
2023-07-14T04:16:03.297Z,81.6
2023-07-14T04:17:03.717Z,81.6
2023-07-14T04:18:03.215Z,81.8
2023-07-14T04:19:01.957Z,81.6
2023-07-14T04:20:01.416Z,82
2023-07-14T04:21:03.515Z,81.9
2023-07-14T04:22:01.284Z,81.9
2023-07-14T04:23:03.526Z,81.8
2023-07-14T04:24:03.847Z,82.2
2023-07-14T04:25:01.666Z,82
2023-07-14T04:26:03.768Z,81.9
2023-07-14T04:27:01.566Z,82
2023-07-14T04:28:03.677Z,81.8
2023-07-14T04:29:01.484Z,81.6
2023-07-14T04:30:01.970Z,81.3
2023-07-14T04:31:01.376Z,81.6
2023-07-14T04:32:01.912Z,80.1
2023-07-14T04:33:03.013Z,79.8
2023-07-14T04:34:03.334Z,79.5
2023-07-14T04:35:02.173Z,79.6
2023-07-14T04:36:03.243Z,80.1
2023-07-14T04:37:03.730Z,79.9
2023-07-14T04:38:03.173Z,79.9
2023-07-14T04:39:03.593Z,79.7
2023-07-14T04:40:03.024Z,80.9
2023-07-14T04:41:03.501Z,81
2023-07-14T04:43:03.431Z,81
2023-07-14T04:44:02.188Z,80.9
2023-07-14T04:45:01.669Z,81
2023-07-14T04:46:03.826Z,81.1
2023-07-14T04:47:03.197Z,81
2023-07-14T04:48:02.076Z,81
2023-07-14T04:49:03.109Z,81
2023-07-14T04:50:01.930Z,80.9
2023-07-14T04:51:02.996Z,80.9
2023-07-14T04:52:01.754Z,80.8
2023-07-14T04:53:03.878Z,80.7
2023-07-14T04:54:01.642Z,80.4
2023-07-14T04:55:03.784Z,80.4
2023-07-14T04:56:03.186Z,80.4
2023-07-14T04:57:03.674Z,80.3
2023-07-14T04:58:02.994Z,80.2
2023-07-14T04:59:03.528Z,80.1
2023-07-14T05:00:02.988Z,80.2
2023-07-14T05:01:03.505Z,80.2
2023-07-14T05:02:02.930Z,79.7
2023-07-14T05:03:02.000Z,79.9
2023-07-14T05:04:01.307Z,79.7
2023-07-14T05:05:01.945Z,79.6
2023-07-14T05:06:02.938Z,79.4
2023-07-14T05:07:03.441Z,79.2
2023-07-14T05:08:02.246Z,79.1
2023-07-14T05:09:03.379Z,79.1
2023-07-14T05:10:03.857Z,78.2
2023-07-14T05:11:03.407Z,78.2
2023-07-14T05:12:03.877Z,78
2023-07-14T05:13:03.355Z,77.8
2023-07-14T05:14:02.241Z,77.6
2023-07-14T05:15:01.800Z,78
2023-07-14T05:16:03.011Z,77.8
2023-07-14T05:17:01.800Z,77.9
2023-07-14T05:18:02.409Z,77
2023-07-14T05:19:01.765Z,76.5
2023-07-14T05:20:03.857Z,76.5
2023-07-14T05:21:03.400Z,76.3
2023-07-14T05:22:02.196Z,76.4
2023-07-14T05:23:01.756Z,76
2023-07-14T05:24:05.330Z,76.4
2023-07-14T05:25:01.629Z,75.9
2023-07-14T05:26:02.074Z,75.5
2023-07-14T05:27:03.197Z,75.3
2023-07-14T05:28:03.111Z,75
2023-07-14T05:29:01.565Z,74.6
2023-07-14T05:30:01.995Z,74.5
2023-07-14T05:31:04.113Z,75.1
2023-07-14T05:32:01.916Z,75
2023-07-14T05:33:01.421Z,74.3
2023-07-14T05:34:03.494Z,74.7
2023-07-14T05:35:01.301Z,74.7
2023-07-14T05:36:01.767Z,74.5
2023-07-14T05:37:02.245Z,74.9
2023-07-14T05:38:01.675Z,74.9
2023-07-14T05:39:03.800Z,74.6
2023-07-14T05:40:03.184Z,75
2023-07-14T05:41:03.710Z,74.8
2023-07-14T05:42:03.128Z,74.3
2023-07-14T05:43:01.940Z,73.8
2023-07-14T05:44:03.025Z,73.8
2023-07-14T05:45:01.884Z,73.8
2023-07-14T05:46:02.925Z,73.4
2023-07-14T05:47:01.809Z,72.8
2023-07-14T05:48:02.183Z,72.8
2023-07-14T05:49:03.274Z,72.7
2023-07-14T05:50:02.088Z,72.9
2023-07-14T05:51:01.570Z,72.7
2023-07-14T05:52:02.008Z,72.6
2023-07-14T05:53:01.480Z,72.8
2023-07-14T05:54:01.946Z,73.2
2023-07-14T05:55:03.097Z,72.3
2023-07-14T05:56:01.860Z,72.4
2023-07-14T05:57:02.937Z,72
2023-07-14T05:58:01.786Z,72.6
2023-07-14T05:59:02.270Z,72.5
2023-07-14T06:00:01.702Z,71.8
2023-07-14T06:01:03.899Z,71.5
2023-07-14T06:02:01.624Z,71.8
2023-07-14T06:03:02.264Z,71.3
2023-07-14T06:04:03.272Z,71
2023-07-14T06:05:03.590Z,71
2023-07-14T06:06:01.421Z,71.2
2023-07-14T06:07:01.909Z,70.8
2023-07-14T06:08:01.325Z,71.2
2023-07-14T06:09:03.428Z,71
2023-07-14T06:10:03.856Z,70.7
2023-07-14T06:11:03.309Z,70.5
2023-07-14T06:12:03.756Z,70.5
2023-07-14T06:13:03.220Z,69.9
2023-07-14T06:14:02.006Z,70.4
2023-07-14T06:15:01.504Z,70
2023-07-14T06:16:03.563Z,69.8
2023-07-14T06:17:01.414Z,70.1
2023-07-14T06:18:01.867Z,70.8
2023-07-14T06:19:01.335Z,69.4
2023-07-14T06:20:01.780Z,68.6
2023-07-14T06:21:03.855Z,69.6
2023-07-14T06:22:03.265Z,68.7
2023-07-14T06:23:03.888Z,68.8
2023-07-14T06:24:01.541Z,67.9
2023-07-14T06:25:02.072Z,67.6
2023-07-14T06:26:01.447Z,67.7
2023-07-14T06:27:01.942Z,67.9
2023-07-14T06:28:01.396Z,67.3
2023-07-14T06:29:03.563Z,67.3
2023-07-14T06:30:01.332Z,67.4
2023-07-14T06:31:03.597Z,67.5
2023-07-14T06:32:03.851Z,67.3
2023-07-14T06:33:01.722Z,67.2
2023-07-14T06:34:02.185Z,67
2023-07-14T06:35:03.336Z,67
2023-07-14T06:36:02.104Z,67.5
2023-07-14T06:37:01.594Z,66.3
2023-07-14T06:38:02.042Z,65.9
2023-07-14T06:39:03.148Z,66.4
2023-07-14T06:40:01.976Z,66
2023-07-14T06:41:03.072Z,65.8
2023-07-14T06:42:03.502Z,65.6
2023-07-14T06:43:02.962Z,66.1
2023-07-14T06:44:15.588Z,65.8
2023-07-14T06:45:02.235Z,65.7
2023-07-14T06:46:01.654Z,66.2
2023-07-14T06:47:02.172Z,66
2023-07-14T06:48:03.324Z,64.5
2023-07-14T06:49:15.357Z,64.6
2023-07-14T06:50:01.512Z,64.7
2023-07-14T06:51:01.985Z,64.9
2023-07-14T06:52:03.113Z,63.5
2023-07-14T06:53:01.937Z,63.7
2023-07-14T06:54:01.406Z,64.4
2023-07-14T06:55:03.496Z,63.2
2023-07-14T06:56:01.317Z,63.2
2023-07-14T06:57:03.486Z,63
2023-07-14T06:58:03.917Z,63.3
2023-07-14T06:59:03.320Z,63.6
2023-07-14T07:00:02.160Z,64.4
2023-07-14T07:01:01.601Z,64.2
2023-07-14T07:02:03.719Z,63.1
2023-07-14T07:03:01.573Z,62.5
2023-07-14T07:04:03.616Z,64.2
2023-07-14T07:05:03.142Z,62.8
2023-07-14T07:06:01.882Z,63.4
2023-07-14T07:07:01.318Z,63.2
2023-07-14T07:08:01.767Z,62.6
2023-07-14T07:09:05.242Z,62.8
2023-07-14T07:10:01.667Z,63
2023-07-14T07:11:02.139Z,62.7
2023-07-14T07:12:01.634Z,62.2
2023-07-14T07:13:03.696Z,62.6
2023-07-14T07:14:01.497Z,62.5
2023-07-14T07:15:03.648Z,62.8
2023-07-14T07:16:01.415Z,61.4
2023-07-14T07:17:01.930Z,62.8
2023-07-14T07:18:03.012Z,62.6
2023-07-14T07:19:03.412Z,61.7
2023-07-14T07:20:02.231Z,61.9
2023-07-14T07:21:01.718Z,62.3
2023-07-14T07:22:02.189Z,61.9
2023-07-14T07:23:01.753Z,61.4
2023-07-14T07:24:02.146Z,61.7
2023-07-14T07:25:03.187Z,60.7
2023-07-14T07:26:02.011Z,61.7
2023-07-14T07:27:01.447Z,61.2
2023-07-14T07:28:03.582Z,61.5
2023-07-14T07:29:03.002Z,61.9
2023-07-14T07:30:03.437Z,61.5
2023-07-14T07:31:02.200Z,61.6
2023-07-14T07:32:03.300Z,61.1
2023-07-14T07:33:02.099Z,60.8
2023-07-14T07:34:03.195Z,61.3
2023-07-14T07:35:02.081Z,61.4
2023-07-14T07:36:01.480Z,61.7
2023-07-14T07:37:01.954Z,62
2023-07-14T07:38:01.406Z,62.9
2023-07-14T07:39:03.524Z,62.3
2023-07-14T07:40:01.343Z,62.5
2023-07-14T07:41:03.401Z,61.9
2023-07-14T07:42:03.897Z,61.7
2023-07-14T07:43:03.341Z,61.4
2023-07-14T07:44:02.112Z,61
2023-07-14T07:45:03.243Z,61.1
2023-07-14T07:46:03.745Z,60.8
2023-07-14T07:47:03.118Z,60.9
2023-07-14T07:48:01.988Z,60.8
2023-07-14T07:49:01.385Z,60.5
2023-07-14T07:50:03.525Z,61.1
2023-07-14T07:51:02.972Z,60.4
2023-07-14T07:52:01.763Z,60.5
2023-07-14T07:53:03.847Z,62
2023-07-14T07:54:03.296Z,61
2023-07-14T07:55:03.770Z,61.2
2023-07-14T07:56:01.591Z,61.8
2023-07-14T07:57:03.633Z,60.5
2023-07-14T07:58:01.428Z,60.8
2023-07-14T07:59:03.532Z,60.6
2023-07-14T08:00:01.364Z,60
2023-07-14T08:01:03.448Z,60.1
2023-07-14T08:02:02.304Z,60.8
2023-07-14T08:03:03.451Z,60.3
2023-07-14T08:04:02.437Z,60.1
2023-07-14T08:05:03.300Z,60.8
2023-07-14T08:06:03.733Z,60.4
2023-07-14T08:07:03.145Z,60.5
2023-07-14T08:08:01.976Z,60.6
2023-07-14T08:09:01.429Z,60.9
2023-07-14T08:10:01.914Z,61.5
2023-07-14T08:11:03.011Z,60.6
2023-07-14T08:12:01.835Z,60
2023-07-14T08:14:01.721Z,60.1
2023-07-14T08:15:03.813Z,60.5
2023-07-14T08:16:03.337Z,59.9
2023-07-14T08:17:02.146Z,60.1
2023-07-14T08:18:03.231Z,59.4
2023-07-14T08:19:03.629Z,57.6
2023-07-14T08:20:01.577Z,58.3
2023-07-14T08:21:01.913Z,58.5
2023-07-14T08:22:01.407Z,58.6
2023-07-14T08:23:03.556Z,60.5
2023-07-14T08:24:02.930Z,58.8
2023-07-14T08:25:01.759Z,58.2
2023-07-14T08:26:03.830Z,59.2
2023-07-14T08:27:03.272Z,59.7
2023-07-14T08:28:02.065Z,59.9
2023-07-14T08:29:01.542Z,59
2023-07-14T08:30:02.015Z,58.8
2023-07-14T08:31:01.494Z,60.5
2023-07-14T08:32:03.656Z,60.3
2023-07-14T08:33:01.409Z,58.7
2023-07-14T08:34:03.471Z,58.9
2023-07-14T08:35:02.934Z,60.8
2023-07-14T08:36:02.190Z,59.7
2023-07-14T08:37:02.177Z,59.6
2023-07-14T08:38:03.283Z,59.6
2023-07-14T08:39:03.699Z,58.4
2023-07-14T08:40:03.177Z,59.2
2023-07-14T08:41:01.993Z,58.6
2023-07-14T08:42:01.436Z,57.7
2023-07-14T08:43:01.889Z,59.1
2023-07-14T08:44:01.379Z,59.1
2023-07-14T08:45:01.822Z,57.7
2023-07-14T08:46:03.000Z,58.2
2023-07-14T08:47:01.737Z,58.2
2023-07-14T08:48:03.888Z,58.8
2023-07-14T08:49:01.631Z,58
2023-07-14T08:50:02.118Z,58
2023-07-14T08:51:01.594Z,57.8
2023-07-14T08:52:03.692Z,57.6
2023-07-14T08:53:01.440Z,57.4
2023-07-14T08:54:01.911Z,57.5
2023-07-14T08:55:02.982Z,59.5
2023-07-14T08:56:01.844Z,57.8
2023-07-14T08:57:02.938Z,58.2
2023-07-14T08:58:01.752Z,57.6
2023-07-14T08:59:03.898Z,56.3
2023-07-14T09:00:01.678Z,56.3
2023-07-14T09:01:02.229Z,56.1
2023-07-14T09:02:03.246Z,55.8
2023-07-14T09:03:03.741Z,57.1
2023-07-14T09:04:03.144Z,58.4
2023-07-14T09:05:01.969Z,57
2023-07-14T09:06:01.412Z,56.9
2023-07-14T09:07:03.525Z,57
2023-07-14T09:08:01.307Z,59.2
2023-07-14T09:09:03.518Z,55.5
2023-07-14T09:10:03.971Z,57.5
2023-07-14T09:11:03.360Z,56.4
2023-07-14T09:12:03.826Z,56.2
2023-07-14T09:13:03.239Z,56.8
2023-07-14T09:14:03.655Z,57.8
2023-07-14T09:15:01.504Z,57.2
2023-07-14T09:16:02.015Z,57.7
2023-07-14T09:17:01.398Z,59.2
2023-07-14T09:18:02.052Z,57.1
2023-07-14T09:19:02.987Z,57.7
2023-07-14T09:20:01.792Z,57.4
2023-07-14T09:21:02.230Z,57.7
2023-07-14T09:22:01.692Z,56.4
2023-07-14T09:23:02.263Z,57.1
2023-07-14T09:24:03.271Z,55.3
2023-07-14T09:25:02.076Z,55.7
2023-07-14T09:26:03.179Z,57.2
2023-07-14T09:27:01.963Z,55.1
2023-07-14T09:28:01.436Z,58.7
2023-07-14T09:29:01.913Z,56.4
2023-07-14T09:30:03.674Z,56.1
2023-07-14T09:31:01.327Z,56.2
2023-07-14T09:32:03.404Z,57.5
2023-07-14T09:33:02.240Z,54.4
2023-07-14T09:34:03.986Z,53.8
2023-07-14T09:35:02.253Z,53.3
2023-07-14T09:36:03.244Z,53.6
2023-07-14T09:37:02.051Z,53.8
2023-07-14T09:38:01.539Z,53.6
2023-07-14T09:39:01.980Z,54.9
2023-07-14T09:40:01.440Z,54.4
2023-07-14T09:41:01.930Z,53.9
2023-07-14T09:42:03.065Z,53.8
2023-07-14T09:43:01.785Z,54.3
2023-07-14T09:44:02.898Z,54.9
2023-07-14T09:45:03.329Z,55
2023-07-14T09:46:02.273Z,56
2023-07-14T09:47:03.372Z,55.6
2023-07-14T09:48:02.199Z,56.5
2023-07-14T09:49:01.645Z,55.3
2023-07-14T09:50:02.061Z,55.7
2023-07-14T09:51:03.188Z,55.8
2023-07-14T09:52:01.956Z,55.7
2023-07-14T09:53:01.415Z,55.9
2023-07-14T09:54:03.537Z,55.8
2023-07-14T09:55:01.393Z,56.2
2023-07-14T09:56:01.792Z,56.1
2023-07-14T09:57:02.218Z,56.7
2023-07-14T09:58:11.277Z,55.4
2023-07-14T09:59:02.110Z,55
2023-07-14T10:00:01.582Z,54.9
2023-07-14T10:01:02.084Z,55.4
2023-07-14T10:02:01.507Z,55.5
2023-07-14T10:03:03.648Z,56.4
2023-07-14T10:04:01.397Z,56.9
2023-07-14T10:05:01.929Z,56.4
2023-07-14T10:06:02.958Z,55.9
2023-07-14T10:07:03.438Z,54.8
2023-07-14T10:08:03.820Z,54.4
2023-07-14T10:09:01.633Z,55.4
2023-07-14T10:10:02.768Z,55.6
2023-07-14T10:11:03.218Z,57.6
2023-07-14T10:12:02.030Z,55.2
2023-07-14T10:13:01.520Z,54.5
2023-07-14T10:14:03.606Z,54.9
2023-07-14T10:15:03.035Z,56.4
2023-07-14T10:16:03.535Z,58.1
2023-07-14T10:17:02.926Z,55
2023-07-14T10:18:03.466Z,52.9
2023-07-14T10:19:02.226Z,53
2023-07-14T10:20:03.275Z,54.9
2023-07-14T10:21:03.735Z,53.9
2023-07-14T10:22:01.533Z,53
2023-07-14T10:23:02.096Z,53
2023-07-14T10:24:01.514Z,54.2
2023-07-14T10:25:01.952Z,52.9
2023-07-14T10:26:03.051Z,55
2023-07-14T10:27:01.853Z,54.6
2023-07-14T10:28:02.929Z,55
2023-07-14T10:29:01.781Z,55.1
2023-07-14T10:30:03.874Z,55.6
2023-07-14T10:31:01.762Z,55.7
2023-07-14T10:32:02.138Z,55.4
2023-07-14T10:33:01.653Z,53.5
2023-07-14T10:34:02.086Z,53.6
2023-07-14T10:35:01.533Z,53.4
2023-07-14T10:36:03.612Z,54.3
2023-07-14T10:37:01.445Z,55
2023-07-14T10:38:01.870Z,55.5
2023-07-14T10:39:01.342Z,52.9
2023-07-14T10:40:03.439Z,53.7
2023-07-14T10:41:03.911Z,54.1
2023-07-14T10:42:01.707Z,55.3
2023-07-14T10:43:02.163Z,55.7
2023-07-14T10:44:01.584Z,56.1
2023-07-14T10:45:02.067Z,55.9
2023-07-14T10:46:01.580Z,54.6
2023-07-14T10:47:02.149Z,53.5
2023-07-14T10:48:03.183Z,55.7
2023-07-14T10:49:03.554Z,54.8
2023-07-14T10:50:01.942Z,54.6
2023-07-14T10:51:03.376Z,56
2023-07-14T10:52:03.755Z,55
2023-07-14T10:53:01.620Z,52.7
2023-07-14T10:54:03.681Z,52.5
2023-07-14T10:55:01.499Z,53.7
2023-07-14T10:56:01.938Z,52.7
2023-07-14T10:57:01.400Z,53.3
2023-07-14T10:58:01.853Z,53
2023-07-14T10:59:01.292Z,54.3
2023-07-14T11:00:01.722Z,54
2023-07-14T11:01:03.860Z,54.3
2023-07-14T11:02:03.384Z,54.4
2023-07-14T11:03:02.160Z,53.8
2023-07-14T11:04:01.621Z,54.1
2023-07-14T11:05:02.103Z,54.5
2023-07-14T11:06:01.477Z,54.3
2023-07-14T11:07:02.008Z,54.3
2023-07-14T11:08:03.083Z,54.4
2023-07-14T11:09:01.911Z,54.1
2023-07-14T11:10:02.958Z,55
2023-07-14T11:11:01.777Z,54.2
2023-07-14T11:12:02.185Z,54.4
2023-07-14T11:13:03.315Z,53.8
2023-07-14T11:14:03.749Z,52.7
2023-07-14T11:15:03.241Z,52.4
2023-07-14T11:16:03.642Z,52.2
2023-07-14T11:17:03.797Z,52.8
2023-07-14T11:18:03.477Z,53.2
2023-07-14T11:19:02.950Z,52.5
2023-07-14T11:20:03.457Z,53
2023-07-14T11:21:03.817Z,52.2
2023-07-14T11:22:16.204Z,50.9
2023-07-14T11:23:03.761Z,52.8
2023-07-14T11:24:01.443Z,53
2023-07-14T11:25:03.593Z,53.2
2023-07-14T11:26:01.371Z,52
2023-07-14T11:27:03.429Z,50.2
2023-07-14T11:28:02.258Z,50.8
2023-07-14T11:29:01.758Z,52.6
2023-07-14T11:30:02.142Z,53.7
2023-07-14T11:31:01.631Z,53.6
2023-07-14T11:32:03.738Z,52
2023-07-14T11:33:01.566Z,52.3
2023-07-14T11:34:05.220Z,53.6
2023-07-14T11:35:03.028Z,54.1
2023-07-14T11:36:03.492Z,51.4
2023-07-14T11:38:01.737Z,51.7
2023-07-14T11:39:02.200Z,52.3
2023-07-14T11:40:03.319Z,51.5
2023-07-14T11:41:03.804Z,52.4
2023-07-14T11:42:03.151Z,51.5
2023-07-14T11:43:01.985Z,54.4
2023-07-14T11:44:01.413Z,54.7
2023-07-14T11:45:01.895Z,56
2023-07-14T11:46:04.125Z,53.1
2023-07-14T11:47:01.753Z,53
2023-07-14T11:48:02.268Z,53.5
2023-07-14T11:49:01.692Z,52.5
2023-07-14T11:50:03.729Z,52.1
2023-07-14T11:51:03.195Z,52.5
2023-07-14T11:52:01.978Z,53.6
2023-07-14T11:53:01.464Z,54.5
2023-07-14T11:54:03.491Z,53.8
2023-07-14T11:55:02.954Z,53.4
2023-07-14T11:56:01.779Z,52.5
2023-07-14T11:57:03.921Z,54
2023-07-14T11:58:01.658Z,52.4
2023-07-14T11:59:02.142Z,51.8
2023-07-14T12:00:03.266Z,51.2
2023-07-14T12:01:03.732Z,53.4
2023-07-14T12:02:03.216Z,53
2023-07-14T12:03:02.007Z,54.2
2023-07-14T12:04:01.444Z,52.6
2023-07-14T12:05:03.518Z,51.2
2023-07-14T12:06:03.891Z,52.7
2023-07-14T12:07:01.696Z,51.7
2023-07-14T12:08:02.154Z,50.7
2023-07-14T12:09:01.639Z,50.9
2023-07-14T12:10:03.674Z,53
2023-07-14T12:11:01.500Z,52.6
2023-07-14T12:12:01.932Z,49.1
2023-07-14T12:13:03.057Z,51.4
2023-07-14T12:14:01.860Z,51.2
2023-07-14T12:15:01.336Z,50.8
2023-07-14T12:16:03.386Z,49.9
2023-07-14T12:17:02.214Z,49.7
2023-07-14T12:18:01.701Z,49.7
2023-07-14T12:19:02.177Z,49.4
2023-07-14T12:20:03.194Z,50.6
2023-07-14T12:21:03.688Z,50.1
2023-07-14T12:22:03.158Z,49.2
2023-07-14T12:23:02.120Z,50.5
2023-07-14T12:24:03.077Z,50.7
2023-07-14T12:25:01.900Z,49.1
2023-07-14T12:26:01.356Z,49.2
2023-07-14T12:27:03.407Z,49.9
2023-07-14T12:28:02.224Z,49
2023-07-14T12:29:03.308Z,51.1
2023-07-14T12:30:03.803Z,49.5
2023-07-14T12:31:01.566Z,50.4
2023-07-14T12:32:02.039Z,51.9
2023-07-14T12:33:01.592Z,51.5
2023-07-14T12:34:01.958Z,51.9
2023-07-14T12:35:01.473Z,50.3
2023-07-14T12:36:03.559Z,50.9
2023-07-14T12:37:01.330Z,49.6
2023-07-14T12:38:03.413Z,49.9
2023-07-14T12:39:03.857Z,50.9
2023-07-14T12:40:03.282Z,50.4
2023-07-14T12:41:02.132Z,52.8
2023-07-14T12:42:03.184Z,51.5
2023-07-14T12:43:03.641Z,52.2
2023-07-14T12:44:03.136Z,51.1
2023-07-14T12:45:03.540Z,51.2
2023-07-14T12:46:01.423Z,50
2023-07-14T12:47:01.835Z,51.4
2023-07-14T12:48:01.284Z,50.4
2023-07-14T12:49:01.739Z,50.4
2023-07-14T12:50:03.785Z,51.3
2023-07-14T12:51:03.258Z,52.9
2023-07-14T12:52:01.993Z,53.1
2023-07-14T12:53:01.516Z,50.9
2023-07-14T12:54:02.066Z,51.4
2023-07-14T12:55:03.051Z,52.6
2023-07-14T12:56:01.918Z,52.6
2023-07-14T12:57:02.955Z,53.2
2023-07-14T12:58:01.746Z,51
2023-07-14T12:59:02.233Z,51.8
2023-07-14T13:00:01.655Z,52.4
2023-07-14T13:01:03.844Z,51.4
2023-07-14T13:02:01.618Z,51.4
2023-07-14T13:03:03.778Z,53.6
2023-07-14T13:04:01.461Z,52.6
2023-07-14T13:05:03.612Z,51.4
2023-07-14T13:06:03.008Z,52.7
2023-07-14T13:07:03.499Z,50.8
2023-07-14T13:08:01.305Z,51.7
2023-07-14T13:09:03.384Z,51.1
2023-07-14T13:10:03.858Z,51.8
2023-07-14T13:11:01.683Z,52.3
2023-07-14T13:12:03.776Z,50.9
2023-07-14T13:13:01.553Z,51.9
2023-07-14T13:14:02.004Z,49
2023-07-14T13:15:03.083Z,51.3
2023-07-14T13:16:01.945Z,49.6
2023-07-14T13:17:03.012Z,50.2
2023-07-14T13:18:01.925Z,50.4
2023-07-14T13:19:03.937Z,51
2023-07-14T13:20:03.341Z,49.9
2023-07-14T13:21:03.802Z,50.9
2023-07-14T13:22:03.252Z,51.5
2023-07-14T13:23:03.752Z,52.3
2023-07-14T13:24:03.154Z,50
2023-07-14T13:25:01.941Z,47.6
2023-07-14T13:26:01.461Z,50.4
2023-07-14T13:27:03.500Z,49.2
2023-07-14T13:28:01.335Z,47.7
2023-07-14T13:29:01.806Z,48.2